createdAt,value
2022-08-17T00:02:26.985Z,24.50
2022-08-17T00:04:54.864Z,26.25
2022-08-17T00:07:21.571Z,23.48
2022-08-17T00:09:48.382Z,24.17
2022-08-17T00:12:42.578Z,25.42
2022-08-17T00:15:02.241Z,24.85
2022-08-17T00:17:29.080Z,23.23
2022-08-17T00:19:55.780Z,22.77
2022-08-17T00:22:33.039Z,22.90
2022-08-17T00:25:07.125Z,21.92
2022-08-17T00:27:34.433Z,23.17
2022-08-17T00:30:01.006Z,22.20
2022-08-17T00:33:14.163Z,22.98
2022-08-17T00:35:17.672Z,25.00
2022-08-17T00:37:44.366Z,24.15
2022-08-17T00:40:15.052Z,23.05
2022-08-17T00:42:42.823Z,23.90
2022-08-17T00:45:12.562Z,22.75
2022-08-17T00:47:39.923Z,22.48
2022-08-17T00:50:10.629Z,23.48
2022-08-17T00:52:43.760Z,23.35
2022-08-17T00:55:11.100Z,22.35
2022-08-17T00:57:45.056Z,23.38
2022-08-17T01:00:17.878Z,23.02
2022-08-17T01:02:47.675Z,22.50
2022-08-17T01:05:18.679Z,25.10
2022-08-17T01:07:47.774Z,24.85
2022-08-17T01:10:59.966Z,23.23
2022-08-17T01:13:04.315Z,22.73
2022-08-17T01:15:34.258Z,25.45
2022-08-17T01:18:00.934Z,25.35
2022-08-17T01:20:27.825Z,22.45
2022-08-17T01:22:54.588Z,24.30
2022-08-17T01:25:22.249Z,23.20
2022-08-17T01:27:49.749Z,23.15
2022-08-17T01:30:58.042Z,23.30
2022-08-17T01:33:04.680Z,22.83
2022-08-17T01:35:31.823Z,21.70
2022-08-17T01:37:58.509Z,24.67
2022-08-17T01:40:35.200Z,21.73
2022-08-17T01:43:05.857Z,22.95
2022-08-17T01:45:33.845Z,23.08
2022-08-17T01:48:01.034Z,23.15
2022-08-17T01:50:32.121Z,25.60
2022-08-17T01:53:09.349Z,23.37
2022-08-17T01:55:45.608Z,24.42
2022-08-17T01:58:12.388Z,25.88
2022-08-17T02:00:46.825Z,27.83
2022-08-17T02:03:27.124Z,25.95
2022-08-17T02:05:53.785Z,28.38
2022-08-17T02:08:32.551Z,29.30
2022-08-17T02:11:11.717Z,27.27
2022-08-17T02:13:38.929Z,27.05
2022-08-17T02:16:05.913Z,28.73
2022-08-17T02:18:32.874Z,25.85
2022-08-17T02:20:59.636Z,26.15
2022-08-17T02:23:30.314Z,27.63
2022-08-17T02:25:59.883Z,28.00
2022-08-17T02:28:28.305Z,29.02
2022-08-17T02:31:01.436Z,26.80
2022-08-17T02:33:41.598Z,26.52
2022-08-17T02:36:12.542Z,27.75
2022-08-17T02:38:41.144Z,27.02
2022-08-17T02:41:08.815Z,28.65
2022-08-17T02:43:35.731Z,29.73
2022-08-17T02:46:02.333Z,27.90
2022-08-17T02:48:30.837Z,29.17
2022-08-17T02:50:59.357Z,26.40
2022-08-17T02:53:26.392Z,27.30
2022-08-17T02:55:53.407Z,28.30
2022-08-17T02:58:34.806Z,28.95
2022-08-17T03:01:04.774Z,27.23
2022-08-17T03:03:31.404Z,26.35
2022-08-17T03:05:58.025Z,27.30
2022-08-17T03:08:25.505Z,26.95
2022-08-17T03:10:52.554Z,27.98
2022-08-17T03:13:20.024Z,27.48
2022-08-17T03:15:48.421Z,26.38
2022-08-17T03:18:24.498Z,27.63
2022-08-17T03:20:58.075Z,27.80
2022-08-17T03:23:25.919Z,27.85
2022-08-17T03:25:55.153Z,26.05
2022-08-17T03:28:23.684Z,26.40
2022-08-17T03:30:51.249Z,27.45
2022-08-17T03:33:19.109Z,27.80
2022-08-17T03:35:46.343Z,25.48
2022-08-17T03:38:15.845Z,26.40
2022-08-17T03:40:59.056Z,26.08
2022-08-17T03:43:31.895Z,24.92
2022-08-17T03:46:27.704Z,28.80
2022-08-17T03:49:17.551Z,28.08
2022-08-17T03:52:02.911Z,28.27
2022-08-17T03:54:48.108Z,29.35
2022-08-17T03:57:14.953Z,29.05
2022-08-17T03:59:41.628Z,31.55
2022-08-17T04:02:12.556Z,29.02
2022-08-17T04:07:04.005Z,29.08
2022-08-17T04:09:30.890Z,31.48
2022-08-17T04:11:57.547Z,30.60
2022-08-17T04:14:31.228Z,28.25
2022-08-17T04:16:58.116Z,34.20
2022-08-17T04:19:24.746Z,30.83
2022-08-17T04:21:51.344Z,31.98
2022-08-17T04:24:17.985Z,29.10
2022-08-17T04:26:53.993Z,31.00
2022-08-17T04:29:21.734Z,30.25
2022-08-17T04:31:48.452Z,31.13
2022-08-17T04:34:16.344Z,30.58
2022-08-17T04:36:47.958Z,28.95
2022-08-17T04:39:17.268Z,30.02
2022-08-17T04:42:02.345Z,30.48
2022-08-17T04:44:37.678Z,30.48
2022-08-17T04:47:04.807Z,31.98
2022-08-17T04:49:32.516Z,29.75
2022-08-17T04:52:04.392Z,27.88
2022-08-17T04:54:31.778Z,27.77
2022-08-17T04:56:58.435Z,28.10
2022-08-17T04:59:25.067Z,27.67
2022-08-17T05:01:52.333Z,28.88
2022-08-17T05:04:33.802Z,27.48
2022-08-17T05:07:03.974Z,27.77
2022-08-17T05:09:30.939Z,27.65
2022-08-17T05:12:01.617Z,25.52
2022-08-17T05:14:33.420Z,30.80
2022-08-17T05:17:01.421Z,34.78
2022-08-17T05:19:28.648Z,33.30
2022-08-17T05:21:55.325Z,34.85
2022-08-17T05:24:38.293Z,38.15
2022-08-17T05:27:06.655Z,36.63
2022-08-17T05:29:35.469Z,37.90
2022-08-17T05:32:38.642Z,36.33
2022-08-17T05:35:00.169Z,33.20
2022-08-17T05:37:26.788Z,33.45
2022-08-17T05:39:54.343Z,33.22
2022-08-17T05:42:21.590Z,32.45
2022-08-17T05:44:48.367Z,31.83
2022-08-17T05:47:14.985Z,31.02
2022-08-17T05:49:41.620Z,27.65
2022-08-17T05:52:20.432Z,26.70
2022-08-17T05:55:11.693Z,26.92
2022-08-17T05:57:53.488Z,25.47
2022-08-17T06:00:43.045Z,25.17
2022-08-17T06:03:27.161Z,24.98
2022-08-17T06:06:03.451Z,27.40
2022-08-17T06:08:42.349Z,27.95
2022-08-17T06:11:53.676Z,27.17
2022-08-17T06:14:59.355Z,25.87
2022-08-17T06:17:28.053Z,26.20
2022-08-17T06:20:02.704Z,27.92
2022-08-17T06:22:34.428Z,26.80
2022-08-17T06:27:45.016Z,25.90
2022-08-17T06:30:15.986Z,27.27
2022-08-17T06:32:45.688Z,25.45
2022-08-17T06:35:17.144Z,28.35
2022-08-17T06:38:08.493Z,31.42
2022-08-17T06:40:57.050Z,29.58
2022-08-17T06:43:48.520Z,26.42
2022-08-17T06:46:30.576Z,27.73
2022-08-17T06:49:14.642Z,27.90
2022-08-17T06:51:46.308Z,25.85
2022-08-17T06:54:38.810Z,24.67
2022-08-17T06:57:18.238Z,25.20
2022-08-17T06:59:55.186Z,22.00
2022-08-17T07:03:02.240Z,25.67
2022-08-17T07:05:38.853Z,25.13
2022-08-17T07:08:30.050Z,22.85
2022-08-17T07:11:03.768Z,27.92
2022-08-17T07:13:50.520Z,23.38
2022-08-17T07:16:41.050Z,24.02
2022-08-17T07:19:10.887Z,23.35
2022-08-17T07:21:54.956Z,23.13
2022-08-17T07:24:33.546Z,21.15
2022-08-17T07:27:13.668Z,22.65
2022-08-17T07:29:50.927Z,21.08
2022-08-17T07:32:24.070Z,23.30
2022-08-17T07:35:24.949Z,23.67
2022-08-17T07:38:24.842Z,22.95
2022-08-17T07:41:02.685Z,23.00
2022-08-17T07:43:31.489Z,20.02
2022-08-17T07:46:35.416Z,24.48
2022-08-17T07:49:08.074Z,22.30
2022-08-17T07:51:43.806Z,21.17
2022-08-17T07:54:22.516Z,22.00
2022-08-17T07:57:15.393Z,22.00
2022-08-17T08:00:01.411Z,22.52
2022-08-17T08:02:40.632Z,22.90
2022-08-17T08:07:55.541Z,21.05
2022-08-17T08:10:35.441Z,20.27
2022-08-17T08:13:14.545Z,22.77
2022-08-17T08:15:53.709Z,22.98
2022-08-17T08:18:54.392Z,22.17
2022-08-17T08:21:36.475Z,22.55
2022-08-17T08:24:24.049Z,19.95
2022-08-17T08:27:02.897Z,21.58
2022-08-17T08:29:50.552Z,21.10
2022-08-17T08:32:36.844Z,20.92
2022-08-17T08:39:42.359Z,20.75
2022-08-17T08:42:20.609Z,20.88
2022-08-17T08:45:05.863Z,20.02
2022-08-17T08:48:22.719Z,20.08
2022-08-17T08:51:05.804Z,18.85
2022-08-17T08:54:01.164Z,21.40
2022-08-17T08:56:49.707Z,18.77
2022-08-17T08:59:34.004Z,19.75
2022-08-17T09:02:34.975Z,20.05
2022-08-17T09:05:14.219Z,19.88
2022-08-17T09:07:57.620Z,20.33
2022-08-17T09:10:25.400Z,17.10
2022-08-17T09:13:10.151Z,20.45
2022-08-17T09:15:48.157Z,19.80
2022-08-17T09:18:59.844Z,20.88
2022-08-17T09:21:22.507Z,22.83
2022-08-17T09:24:00.139Z,18.85
2022-08-17T09:26:39.425Z,20.55
2022-08-17T09:29:12.881Z,19.77
2022-08-17T09:32:03.509Z,21.10
2022-08-17T09:37:06.682Z,21.60
2022-08-17T09:39:41.891Z,20.73
2022-08-17T09:42:29.168Z,21.25
2022-08-17T09:45:08.137Z,19.27
2022-08-17T09:47:46.683Z,18.85
2022-08-17T09:52:42.096Z,19.17
2022-08-17T09:55:08.724Z,18.70
2022-08-17T09:57:54.599Z,18.05
2022-08-17T10:00:27.919Z,17.00
2022-08-17T10:03:16.099Z,17.80
2022-08-17T10:06:02.717Z,18.60
2022-08-17T10:08:55.283Z,19.33
2022-08-17T10:12:00.723Z,19.05
2022-08-17T10:14:56.496Z,14.77
2022-08-17T10:17:26.293Z,15.88
2022-08-17T10:20:34.009Z,16.13
2022-08-17T10:23:26.996Z,17.65
2022-08-17T10:26:15.783Z,17.05
2022-08-17T10:29:12.517Z,17.58
2022-08-17T10:31:45.929Z,18.70
2022-08-17T10:34:18.837Z,18.63
2022-08-17T10:37:15.074Z,18.38
2022-08-17T10:40:00.239Z,18.80
2022-08-17T10:42:33.720Z,17.08
2022-08-17T10:45:16.126Z,15.20
2022-08-17T10:48:07.769Z,14.85
2022-08-17T10:52:55.901Z,17.17
2022-08-17T10:55:25.698Z,16.65
2022-08-17T10:58:13.400Z,17.63
2022-08-17T11:00:39.950Z,17.35
2022-08-17T11:03:21.224Z,17.10
2022-08-17T11:06:17.119Z,16.00
2022-08-17T11:08:57.572Z,16.65
2022-08-17T11:11:59.785Z,16.42
2022-08-17T11:14:39.148Z,17.10
2022-08-17T11:17:13.047Z,14.82
2022-08-17T11:20:05.212Z,15.05
2022-08-17T11:23:09.434Z,14.00
2022-08-17T11:25:47.880Z,12.30
2022-08-17T11:28:19.285Z,15.02
2022-08-17T11:33:29.673Z,16.17
2022-08-17T11:36:22.836Z,15.05
2022-08-17T11:39:06.193Z,14.95
2022-08-17T11:42:00.824Z,15.38
2022-08-17T11:44:44.131Z,16.23
2022-08-17T11:48:23.741Z,13.85
2022-08-17T11:51:12.449Z,13.35
2022-08-17T11:53:39.211Z,12.95
2022-08-17T11:56:41.108Z,13.18
2022-08-17T11:59:33.260Z,11.57
2022-08-17T12:02:02.067Z,11.32
2022-08-17T12:04:35.012Z,9.55
2022-08-17T12:07:18.020Z,9.77
2022-08-17T12:09:49.726Z,10.43
2022-08-17T12:12:33.151Z,10.93
2022-08-17T12:15:16.699Z,11.02
2022-08-17T12:17:55.978Z,11.73
2022-08-17T12:20:43.989Z,12.02
2022-08-17T12:23:33.751Z,13.10
2022-08-17T12:26:09.929Z,11.20
2022-08-17T12:28:39.180Z,10.15
2022-08-17T12:31:20.780Z,11.27
2022-08-17T12:33:51.642Z,10.10
2022-08-17T12:36:24.866Z,9.63
2022-08-17T12:38:59.390Z,10.98
2022-08-17T12:41:46.921Z,9.40
2022-08-17T12:44:21.425Z,8.93
2022-08-17T12:47:19.383Z,9.52
2022-08-17T12:49:53.509Z,10.68
2022-08-17T12:52:26.957Z,9.65
2022-08-17T12:55:03.401Z,9.90
2022-08-17T12:57:38.722Z,10.13
2022-08-17T13:00:13.392Z,11.07
2022-08-17T13:02:54.186Z,10.23
2022-08-17T13:05:25.546Z,10.07
2022-08-17T13:07:53.361Z,10.90
2022-08-17T13:10:32.461Z,9.70
2022-08-17T13:13:05.882Z,10.60
2022-08-17T13:15:44.625Z,10.00
2022-08-17T13:18:29.788Z,9.95
2022-08-17T13:20:59.202Z,8.68
2022-08-17T13:23:29.176Z,9.13
2022-08-17T13:26:02.837Z,9.07
2022-08-17T13:28:30.602Z,9.43
2022-08-17T13:31:32.272Z,7.95
2022-08-17T13:34:24.039Z,8.27
2022-08-17T13:37:32.618Z,9.27
2022-08-17T13:40:08.346Z,9.20
2022-08-17T13:42:51.680Z,9.88
2022-08-17T13:45:35.326Z,9.65
2022-08-17T13:48:19.358Z,8.90
2022-08-17T13:51:03.965Z,9.43
2022-08-17T13:53:36.943Z,10.77
2022-08-17T13:56:33.504Z,8.98
2022-08-17T13:59:12.698Z,9.43
2022-08-17T14:01:53.166Z,9.07
2022-08-17T14:06:57.927Z,9.52
2022-08-17T14:09:37.074Z,7.55
2022-08-17T14:12:11.365Z,10.30
2022-08-17T14:14:38.858Z,9.77
2022-08-17T14:17:05.639Z,9.98
2022-08-17T14:19:36.205Z,11.05
2022-08-17T14:22:04.959Z,12.07
2022-08-17T14:24:35.062Z,12.48
2022-08-17T14:27:04.011Z,11.57
2022-08-17T14:29:32.463Z,10.85
2022-08-17T14:32:05.020Z,11.98
2022-08-17T14:34:31.599Z,11.27
2022-08-17T14:36:58.589Z,11.68
2022-08-17T14:39:25.300Z,11.88
2022-08-17T14:41:52.950Z,11.00
2022-08-17T14:44:19.569Z,12.07
2022-08-17T14:46:46.308Z,11.55
2022-08-17T14:49:15.566Z,12.85
2022-08-17T14:51:44.191Z,13.45
2022-08-17T14:54:33.291Z,11.63
2022-08-17T14:57:24.790Z,12.48
2022-08-17T14:59:48.822Z,12.38
2022-08-17T15:02:21.647Z,12.45
2022-08-17T15:05:04.394Z,12.90
2022-08-17T15:07:31.718Z,13.07
2022-08-17T15:10:02.092Z,12.13
2022-08-17T15:12:33.230Z,13.52
2022-08-17T15:15:01.949Z,12.57
2022-08-17T15:17:44.737Z,12.90
2022-08-17T15:20:22.797Z,13.40
2022-08-17T15:22:50.508Z,13.95
2022-08-17T15:25:19.195Z,12.95
2022-08-17T15:27:46.152Z,14.10
2022-08-17T15:30:13.319Z,14.85
2022-08-17T15:32:45.855Z,14.65
2022-08-17T15:35:27.220Z,14.88
2022-08-17T15:38:10.596Z,14.68
2022-08-17T15:40:46.999Z,15.07
2022-08-17T15:43:17.357Z,14.30
2022-08-17T15:45:45.238Z,15.20
2022-08-17T15:48:40.727Z,15.05
2022-08-17T15:51:21.610Z,16.65
2022-08-17T15:53:59.197Z,15.43
2022-08-17T15:56:26.847Z,15.50
2022-08-17T15:58:55.129Z,17.13
2022-08-17T16:03:01.470Z,15.93
2022-08-17T16:04:29.711Z,15.68
2022-08-17T16:06:57.344Z,13.85
2022-08-17T16:09:23.866Z,12.65
2022-08-17T16:11:52.169Z,11.13
2022-08-17T16:14:22.400Z,11.82
2022-08-17T16:16:50.598Z,11.60
2022-08-17T16:19:17.264Z,12.55
2022-08-17T16:21:43.830Z,12.25
2022-08-17T16:24:13.626Z,13.40
2022-08-17T16:26:43.574Z,14.98
2022-08-17T16:29:10.375Z,13.93
2022-08-17T16:31:37.730Z,14.15
2022-08-17T16:34:17.970Z,14.38
2022-08-17T16:36:54.936Z,13.02
2022-08-17T16:39:27.496Z,15.15
2022-08-17T16:41:55.846Z,14.60
2022-08-17T16:44:22.685Z,15.23
2022-08-17T16:46:50.218Z,15.50
2022-08-17T16:49:26.778Z,14.88
2022-08-17T16:52:04.230Z,14.55
2022-08-17T16:54:30.817Z,16.13
2022-08-17T16:56:57.383Z,14.25
2022-08-17T16:59:31.127Z,14.80
2022-08-17T17:02:10.931Z,15.50
2022-08-17T17:07:34.875Z,14.25
2022-08-17T17:10:15.801Z,14.73
2022-08-17T17:13:02.231Z,14.38
2022-08-17T17:15:56.953Z,14.85
2022-08-17T17:18:37.645Z,16.25
2022-08-17T17:21:06.424Z,16.73
2022-08-17T17:23:41.108Z,14.93
2022-08-17T17:26:29.194Z,14.93
2022-08-17T17:29:18.806Z,15.70
2022-08-17T17:32:10.341Z,15.48
2022-08-17T17:34:39.726Z,15.45
2022-08-17T17:37:14.142Z,15.88
2022-08-17T17:39:49.052Z,15.32
2022-08-17T17:42:22.007Z,16.00
2022-08-17T17:44:59.150Z,15.70
2022-08-17T17:47:26.656Z,15.43
2022-08-17T17:49:53.243Z,15.88
2022-08-17T17:52:37.974Z,15.57
2022-08-17T17:55:04.521Z,15.50
2022-08-17T17:58:05.345Z,16.85
2022-08-17T18:00:54.076Z,16.48
2022-08-17T18:03:51.597Z,16.85
2022-08-17T18:06:29.548Z,15.30
2022-08-17T18:09:25.370Z,15.93
2022-08-17T18:12:00.368Z,15.88
2022-08-17T18:14:42.673Z,17.25
2022-08-17T18:19:39.932Z,17.75
2022-08-17T18:22:19.629Z,16.73
2022-08-17T18:24:48.938Z,17.50
2022-08-17T18:27:36.820Z,18.00
2022-08-17T18:30:26.857Z,17.70
2022-08-17T18:32:53.577Z,18.25
2022-08-17T18:35:20.284Z,17.65
2022-08-17T18:37:55.721Z,16.92
2022-08-17T18:44:56.891Z,17.70
2022-08-17T18:47:28.256Z,17.60
2022-08-17T18:50:26.180Z,17.92
2022-08-17T18:52:55.240Z,18.33
2022-08-17T18:55:27.786Z,20.30
2022-08-17T18:58:13.198Z,20.15
2022-08-17T19:00:43.470Z,20.10
2022-08-17T19:03:16.601Z,18.38
2022-08-17T19:05:56.172Z,21.25
2022-08-17T19:08:28.843Z,20.38
2022-08-17T19:11:01.170Z,20.98
2022-08-17T19:13:44.087Z,20.63
2022-08-17T19:16:20.310Z,20.55
2022-08-17T19:18:47.548Z,20.08
2022-08-17T19:21:25.422Z,20.95
2022-08-17T19:24:19.551Z,20.70
2022-08-17T19:27:16.175Z,20.65
2022-08-17T19:29:54.896Z,21.45
2022-08-17T19:32:25.663Z,22.27
2022-08-17T19:34:52.859Z,21.93
2022-08-17T19:37:25.452Z,21.33
2022-08-17T19:40:24.434Z,20.63
2022-08-17T19:43:14.681Z,20.98
2022-08-17T19:45:47.252Z,19.92
2022-08-17T19:48:21.263Z,22.17
2022-08-17T19:50:52.664Z,20.33
2022-08-17T19:53:36.854Z,20.67
2022-08-17T19:56:25.078Z,20.83
2022-08-17T19:59:29.612Z,20.75
2022-08-17T20:02:38.404Z,20.90
2022-08-17T20:05:25.935Z,19.83
2022-08-17T20:07:56.613Z,21.63
2022-08-17T20:10:28.722Z,21.70
2022-08-17T20:13:03.045Z,21.67
2022-08-17T20:15:33.474Z,21.15
2022-08-17T20:20:31.157Z,21.95
2022-08-17T20:23:22.868Z,21.40
2022-08-17T20:26:14.875Z,21.80
2022-08-17T20:29:10.057Z,21.95
2022-08-17T20:31:46.708Z,22.02
2022-08-17T20:34:25.646Z,20.95
2022-08-17T20:37:26.167Z,22.33
2022-08-17T20:39:52.941Z,22.15
2022-08-17T20:42:19.745Z,22.30
2022-08-17T20:44:52.695Z,22.40
2022-08-17T20:48:00.832Z,22.13
2022-08-17T20:50:33.662Z,21.25
2022-08-17T20:53:03.231Z,22.95
2022-08-17T20:55:51.404Z,23.73
2022-08-17T20:58:30.661Z,22.33
2022-08-17T21:00:58.942Z,22.05
2022-08-17T21:03:39.976Z,22.63
2022-08-17T21:06:18.188Z,22.95
2022-08-17T21:09:12.810Z,21.35
2022-08-17T21:12:02.654Z,22.33
2022-08-17T21:14:58.645Z,21.80
2022-08-17T21:17:38.210Z,23.20
2022-08-17T21:20:23.920Z,23.52
2022-08-17T21:23:09.170Z,24.90
2022-08-17T21:25:48.336Z,23.00
2022-08-17T21:28:35.619Z,23.52
2022-08-17T21:31:08.510Z,23.10
2022-08-17T21:33:39.934Z,22.83
2022-08-17T21:36:12.947Z,24.35
2022-08-17T21:38:57.794Z,23.42
2022-08-17T21:41:29.796Z,26.05
2022-08-17T21:44:18.058Z,24.63
2022-08-17T21:46:49.245Z,26.00
2022-08-17T21:49:19.812Z,24.98
2022-08-17T21:51:54.049Z,25.88
2022-08-17T21:54:31.370Z,25.38
2022-08-17T21:57:03.825Z,23.85
2022-08-17T22:02:06.468Z,24.63
2022-08-17T22:04:34.677Z,24.90
2022-08-17T22:07:04.643Z,25.40
2022-08-17T22:09:53.397Z,24.73
2022-08-17T22:12:22.699Z,24.25
2022-08-17T22:15:04.098Z,24.00
2022-08-17T22:17:35.331Z,24.52
2022-08-17T22:20:09.473Z,23.95
2022-08-17T22:23:18.269Z,24.42
2022-08-17T22:26:04.858Z,23.98
2022-08-17T22:28:46.034Z,24.90
2022-08-17T22:33:49.618Z,25.23
2022-08-17T22:36:33.517Z,24.27
2022-08-17T22:39:22.681Z,25.52
2022-08-17T22:42:00.354Z,25.08
2022-08-17T22:44:37.732Z,24.38
2022-08-17T22:47:11.433Z,24.98
2022-08-17T22:49:59.134Z,23.50
2022-08-17T22:52:56.026Z,24.33
2022-08-17T22:55:42.116Z,24.40
2022-08-17T22:58:42.115Z,25.25
2022-08-17T23:01:25.979Z,26.75
2022-08-17T23:04:01.302Z,25.27
2022-08-17T23:06:29.673Z,26.85
2022-08-17T23:11:16.816Z,25.92
2022-08-17T23:13:44.395Z,25.23
2022-08-17T23:18:32.555Z,26.27
2022-08-17T23:20:59.690Z,26.50
2022-08-17T23:23:26.559Z,26.17
2022-08-17T23:25:54.392Z,26.10
2022-08-17T23:28:21.498Z,25.88
2022-08-17T23:30:48.542Z,26.38
2022-08-17T23:33:41.778Z,26.95
2022-08-17T23:36:16.782Z,26.33
2022-08-17T23:38:45.774Z,26.65
2022-08-17T23:41:19.267Z,26.02
2022-08-17T23:43:48.843Z,24.45
2022-08-17T23:48:41.042Z,26.38
2022-08-17T23:51:11.519Z,26.70
2022-08-17T23:53:44.046Z,26.73
2022-08-17T23:56:11.678Z,27.67
